Time;durP1;ratioP1;P1;durP2;ratioP2;P2;SDS_P1;SDS_P2;PMS_P1;PMS_P2;Temp;Humidity;BMP_temperature;BMP_pressure;BME280_temperature;BME280_humidity;BME280_pressure;Samples;Min_cycle;Max_cycle;Signal;HPM_P1;HPM_P2
2023/10/31 04:01:21;;;;;;;1999.90;999.90;;;10.10;99.90;;;;;;5586392;23;20085;-78
2023/10/31 04:03:47;;;;;;;1999.90;999.90;;;10.10;99.90;;;;;;5012446;28;20424;-78
2023/10/31 04:06:12;;;;;;;1999.90;999.90;;;10.10;99.90;;;;;;5012625;28;20065;-78
2023/10/31 04:08:41;;;;;;;1999.90;999.90;;;10.10;99.90;;;;;;5012396;28;20374;-82
2023/10/31 04:11:06;;;;;;;1999.90;999.90;;;10.10;99.90;;;;;;5012072;28;20045;-78
2023/10/31 04:13:32;;;;;;;1999.90;999.90;;;10.10;99.90;;;;;;5012350;28;20038;-77
2023/10/31 04:15:57;;;;;;;1999.90;999.90;;;10.10;99.90;;;;;;5012411;28;20096;-79
2023/10/31 04:18:23;;;;;;;1999.90;999.90;;;10.10;99.90;;;;;;5012892;28;20037;-78
2023/10/31 04:20:49;;;;;;;1999.90;999.90;;;10.10;99.90;;;;;;5012465;28;20084;-80
2023/10/31 04:23:14;;;;;;;1999.90;999.90;;;10.10;99.90;;;;;;4995756;28;20473;-79
2023/10/31 04:25:40;;;;;;;1999.90;999.90;;;10.20;99.90;;;;;;5012282;28;20088;-81
2023/10/31 04:28:06;;;;;;;1999.90;999.90;;;10.10;99.90;;;;;;5013678;28;20052;-79
2023/10/31 04:30:31;;;;;;;1999.90;999.90;;;10.10;99.90;;;;;;5012259;28;20038;-80
2023/10/31 04:32:57;;;;;;;1999.90;999.90;;;10.10;99.90;;;;;;5012190;28;20101;-80
2023/10/31 04:35:22;;;;;;;1999.90;999.90;;;10.10;99.90;;;;;;5012263;28;20192;-78
2023/10/31 04:37:48;;;;;;;1999.90;999.90;;;10.10;99.90;;;;;;5012564;28;20115;-78
2023/10/31 04:40:14;;;;;;;1999.90;999.90;;;10.10;99.90;;;;;;5012496;28;20452;-76
2023/10/31 04:42:40;;;;;;;1999.90;999.90;;;10.10;99.90;;;;;;5012270;28;20042;-77
2023/10/31 04:45:07;;;;;;;1999.90;999.90;;;10.10;99.90;;;;;;5012134;28;20042;-81
2023/10/31 04:47:32;;;;;;;1999.90;999.90;;;10.10;99.90;;;;;;5012417;28;20041;-77
2023/10/31 04:49:58;;;;;;;1999.90;999.90;;;10.10;99.90;;;;;;5012301;28;20049;-77
2023/10/31 04:52:25;;;;;;;1999.90;999.90;;;10.10;99.90;;;;;;5012379;28;20040;-79
2023/10/31 04:54:51;;;;;;;1999.90;999.90;;;10.10;99.90;;;;;;4997061;28;20081;-80
2023/10/31 04:57:17;;;;;;;1999.90;999.90;;;10.10;99.90;;;;;;4993656;28;20473;-79
2023/10/31 04:59:43;;;;;;;1999.90;999.90;;;10.10;99.90;;;;;;4994324;28;20066;-81
2023/10/31 05:02:08;;;;;;;1999.90;999.90;;;10.10;99.90;;;;;;4992254;28;20034;-78
2023/10/31 05:04:37;;;;;;;1999.90;999.90;;;10.10;99.90;;;;;;4992379;28;20072;-80
2023/10/31 05:07:03;;;;;;;1999.90;999.90;;;10.00;99.90;;;;;;4992520;28;20073;-78
2023/10/31 05:09:29;;;;;;;1999.90;999.90;;;10.00;99.90;;;;;;4992340;28;20042;-80
2023/10/31 05:11:54;;;;;;;1999.90;999.90;;;10.00;99.90;;;;;;4993090;28;20034;-80
2023/10/31 05:14:20;;;;;;;1999.90;999.90;;;10.00;99.90;;;;;;4992572;28;20042;-79
2023/10/31 05:16:46;;;;;;;1999.90;999.90;;;10.00;99.90;;;;;;4992722;28;20453;-78
2023/10/31 05:19:12;;;;;;;1999.90;999.90;;;10.00;99.90;;;;;;4996041;28;20046;-77
2023/10/31 05:21:38;;;;;;;1999.90;999.90;;;10.00;99.90;;;;;;4995759;28;20046;-80
2023/10/31 05:24:04;;;;;;;1999.90;999.90;;;10.00;99.90;;;;;;4995945;28;20383;-79
2023/10/31 05:26:30;;;;;;;1999.90;999.90;;;10.00;99.90;;;;;;5010621;28;20068;-81
2023/10/31 05:28:59;;;;;;;1999.90;999.90;;;10.00;99.90;;;;;;5015989;28;20037;-85
2023/10/31 05:31:25;;;;;;;1999.90;999.90;;;10.10;99.90;;;;;;4999267;28;20038;-80
2023/10/31 05:33:52;;;;;;;1999.90;999.90;;;10.10;99.90;;;;;;5015663;28;20125;-79
2023/10/31 05:36:23;;;;;;;1999.90;999.90;;;10.10;99.90;;;;;;5015887;28;20053;-82
2023/10/31 05:38:49;;;;;;;1999.90;999.90;;;10.00;99.90;;;;;;5016536;28;20064;-79
2023/10/31 05:41:15;;;;;;;1999.90;999.90;;;10.10;99.90;;;;;;5014109;28;20076;-80
2023/10/31 05:43:41;;;;;;;1999.90;999.90;;;10.10;99.90;;;;;;5015153;28;20038;-83
2023/10/31 05:46:10;;;;;;;1999.90;999.90;;;10.00;99.90;;;;;;5015260;28;20481;-77
2023/10/31 05:48:40;;;;;;;1999.90;999.90;;;10.00;99.90;;;;;;5014823;28;20034;-82
2023/10/31 05:51:15;;;;;;;1999.90;999.90;;;10.00;99.90;;;;;;5014684;28;20034;-79
2023/10/31 05:53:43;;;;;;;1999.90;999.90;;;10.00;99.90;;;;;;5014766;28;20463;-78
2023/10/31 05:56:09;;;;;;;1999.90;999.90;;;10.00;99.90;;;;;;5015048;28;20046;-82
2023/10/31 05:58:35;;;;;;;1999.90;999.90;;;10.00;99.90;;;;;;5014894;28;20041;-80
2023/10/31 06:01:01;;;;;;;1999.90;999.90;;;10.00;99.90;;;;;;5014692;28;20037;-78
2023/10/31 06:03:26;;;;;;;1999.90;999.90;;;10.00;99.90;;;;;;5014950;28;20042;-80
2023/10/31 06:05:52;;;;;;;1999.90;999.90;;;10.00;99.90;;;;;;5014866;28;20053;-80
2023/10/31 06:08:17;;;;;;;1999.90;999.90;;;10.00;99.90;;;;;;5015363;28;20037;-82
2023/10/31 06:10:43;;;;;;;1999.90;999.90;;;10.00;99.90;;;;;;4998325;28;20046;-82
2023/10/31 06:13:09;;;;;;;1999.90;999.90;;;10.00;99.90;;;;;;5014631;28;20070;-80
2023/10/31 06:15:34;;;;;;;1999.90;999.90;;;10.00;99.90;;;;;;4998356;28;20128;-82
2023/10/31 06:18:00;;;;;;;1999.90;999.90;;;10.00;99.90;;;;;;5015069;28;20397;-81
2023/10/31 06:20:26;;;;;;;1999.90;999.90;;;10.00;99.90;;;;;;5014401;28;20046;-82
2023/10/31 06:22:52;;;;;;;1999.90;999.90;;;10.10;99.90;;;;;;5015665;28;20044;-81
2023/10/31 06:25:17;;;;;;;1999.90;999.90;;;10.10;99.90;;;;;;5014402;28;20046;-81
2023/10/31 06:27:43;;;;;;;1999.90;999.90;;;10.10;99.90;;;;;;5014422;28;20049;-84
2023/10/31 06:30:09;;;;;;;1999.90;999.90;;;10.10;99.90;;;;;;5014539;28;20085;-81
2023/10/31 06:32:36;;;;;;;1999.90;999.90;;;10.10;99.90;;;;;;4998331;28;20041;-82
2023/10/31 06:35:02;;;;;;;1999.90;999.90;;;10.10;99.90;;;;;;5015707;28;20064;-83
2023/10/31 06:37:28;;;;;;;1999.90;999.90;;;10.10;99.90;;;;;;5014929;28;20046;-83
2023/10/31 06:39:53;;;;;;;1999.90;999.90;;;10.20;99.90;;;;;;4998240;28;20415;-79
2023/10/31 06:42:19;;;;;;;1999.90;999.90;;;10.20;99.90;;;;;;5014759;28;20037;-80
2023/10/31 06:44:45;;;;;;;1999.90;999.90;;;10.20;99.90;;;;;;5014174;28;20034;-81
2023/10/31 06:47:10;;;;;;;1999.90;999.90;;;10.30;99.90;;;;;;5014428;28;20069;-80
2023/10/31 06:49:36;;;;;;;1999.90;999.90;;;10.30;99.90;;;;;;5014348;28;20077;-81
2023/10/31 06:52:03;;;;;;;1999.90;999.90;;;10.20;99.90;;;;;;5013983;28;20042;-82
2023/10/31 06:54:31;;;;;;;1999.90;999.90;;;10.30;99.90;;;;;;5014217;28;20048;-83
2023/10/31 06:56:57;;;;;;;1999.90;999.90;;;10.30;99.90;;;;;;5015574;28;20033;-79
2023/10/31 06:59:22;;;;;;;1999.90;999.90;;;10.40;99.90;;;;;;5013665;28;20486;-80
2023/10/31 07:01:48;;;;;;;1999.90;999.90;;;10.40;99.90;;;;;;5014043;28;20038;-82
2023/10/31 07:04:14;;;;;;;1999.90;999.90;;;10.40;99.90;;;;;;5013608;28;20106;-79
2023/10/31 07:06:39;;;;;;;1999.90;999.90;;;10.40;99.90;;;;;;5015410;28;20096;-80
2023/10/31 07:09:05;;;;;;;1999.90;999.90;;;10.40;99.90;;;;;;4997265;28;20462;-84
2023/10/31 07:11:33;;;;;;;1999.90;999.90;;;10.40;99.90;;;;;;5013806;28;20038;-83
2023/10/31 07:14:03;;;;;;;1999.90;999.90;;;10.50;99.90;;;;;;5013837;28;20049;-83
2023/10/31 07:16:29;;;;;;;1999.90;999.90;;;10.50;99.90;;;;;;5015000;28;20374;-84
2023/10/31 07:18:55;;;;;;;1999.90;999.90;;;10.50;99.90;;;;;;5013128;28;20038;-83
2023/10/31 07:21:20;;;;;;;1999.90;999.90;;;10.40;99.90;;;;;;5013205;28;20145;-82
2023/10/31 07:23:46;;;;;;;1999.90;999.90;;;10.50;99.90;;;;;;5012485;28;20095;-82
2023/10/31 07:26:12;;;;;;;1999.90;999.90;;;10.50;99.90;;;;;;5012638;28;20129;-81
2023/10/31 07:28:37;;;;;;;1999.90;999.90;;;10.40;99.90;;;;;;5015175;28;20391;-77
2023/10/31 07:31:04;;;;;;;1999.90;999.90;;;10.50;99.90;;;;;;5015726;28;20049;-81
2023/10/31 07:33:30;;;;;;;1999.90;999.90;;;10.50;99.90;;;;;;5013258;28;20121;-78
2023/10/31 07:35:56;;;;;;;1999.90;999.90;;;10.40;99.90;;;;;;5013011;28;20081;-82
2023/10/31 07:38:21;;;;;;;1999.90;999.90;;;10.50;99.90;;;;;;5013321;28;20042;-82
2023/10/31 07:40:48;;;;;;;1999.90;999.90;;;10.50;99.90;;;;;;5012826;28;20069;-80
2023/10/31 07:43:15;;;;;;;1999.90;999.90;;;10.50;99.90;;;;;;5013656;28;20050;-82
2023/10/31 07:45:41;;;;;;;1999.90;999.90;;;10.50;99.90;;;;;;5012939;28;20435;-83
2023/10/31 07:48:07;;;;;;;1999.90;999.90;;;10.50;99.90;;;;;;5013773;28;20045;-83
2023/10/31 07:50:32;;;;;;;1999.90;999.90;;;10.50;99.90;;;;;;5012781;28;20117;-83
2023/10/31 07:52:59;;;;;;;1999.90;999.90;;;10.50;99.90;;;;;;5013621;28;20160;-81
2023/10/31 07:55:25;;;;;;;1999.90;999.90;;;10.50;99.90;;;;;;5012688;28;20049;-83
2023/10/31 07:57:50;;;;;;;1999.90;999.90;;;10.50;99.90;;;;;;5012614;28;20049;-83
2023/10/31 08:00:16;;;;;;;1999.90;999.90;;;10.50;99.90;;;;;;5012233;28;20401;-79
2023/10/31 08:02:43;;;;;;;1999.90;999.90;;;10.50;99.90;;;;;;5012644;28;20042;-83
2023/10/31 08:05:10;;;;;;;1999.90;999.90;;;10.50;99.90;;;;;;5013782;28;20050;-85
2023/10/31 08:07:36;;;;;;;1999.90;999.90;;;10.50;99.90;;;;;;5014271;28;20100;-81
2023/10/31 08:10:03;;;;;;;1999.90;999.90;;;10.60;99.90;;;;;;5013931;28;20043;-83
2023/10/31 08:12:29;;;;;;;1999.90;999.90;;;10.60;99.90;;;;;;5012981;28;20046;-83
2023/10/31 08:14:55;;;;;;;1999.90;999.90;;;10.50;99.90;;;;;;5013892;28;20515;-83
2023/10/31 08:17:20;;;;;;;1999.90;999.90;;;10.50;99.90;;;;;;5012693;28;20397;-81
2023/10/31 08:19:47;;;;;;;1999.90;999.90;;;10.60;99.90;;;;;;5014498;28;20438;-85
2023/10/31 08:22:13;;;;;;;1999.90;999.90;;;10.50;99.90;;;;;;5012477;28;20050;-84
2023/10/31 08:24:39;;;;;;;1999.90;999.90;;;10.50;99.90;;;;;;5014394;28;20065;-86
2023/10/31 08:27:05;;;;;;;1999.90;999.90;;;10.50;99.90;;;;;;5014747;28;20034;-81
2023/10/31 08:29:31;;;;;;;1999.90;999.90;;;10.50;99.90;;;;;;5013601;28;20046;-81
2023/10/31 08:31:57;;;;;;;1999.90;999.90;;;10.60;99.90;;;;;;5014014;28;20045;-81
2023/10/31 08:34:23;;;;;;;1999.90;999.90;;;10.60;99.90;;;;;;5012502;28;20046;-82
2023/10/31 08:36:48;;;;;;;1999.90;999.90;;;10.60;99.90;;;;;;4996021;28;20057;-80
2023/10/31 08:39:14;;;;;;;1999.90;999.90;;;10.70;99.90;;;;;;5012248;28;20045;-80
2023/10/31 08:41:53;;;;;;;1999.90;999.90;;;10.80;99.90;;;;;;5012569;28;20060;-82
2023/10/31 08:44:19;;;;;;;1999.90;999.90;;;10.90;99.90;;;;;;5013209;28;20100;-81
2023/10/31 08:46:44;;;;;;;1999.90;999.90;;;11.00;99.90;;;;;;5013740;28;20042;-78
2023/10/31 08:49:10;;;;;;;1999.90;999.90;;;11.10;99.90;;;;;;4996101;28;20465;-79
2023/10/31 08:51:36;;;;;;;1999.90;999.90;;;11.30;99.90;;;;;;4998343;28;20046;-81
2023/10/31 08:54:01;;;;;;;1999.90;999.90;;;11.40;99.90;;;;;;4997313;28;20445;-80
2023/10/31 08:56:27;;;;;;;1999.90;999.90;;;11.50;99.90;;;;;;4997679;28;20108;-80
2023/10/31 08:58:53;;;;;;;1999.90;999.90;;;11.60;99.90;;;;;;4997728;28;20197;-79
2023/10/31 09:01:19;;;;;;;1999.90;999.90;;;11.60;99.90;;;;;;4996668;28;20589;-80
2023/10/31 09:03:45;;;;;;;1999.90;999.90;;;11.80;99.90;;;;;;4997329;28;20038;-81
2023/10/31 09:06:11;;;;;;;1999.90;999.90;;;11.80;99.90;;;;;;4980951;28;20363;-78
2023/10/31 09:08:38;;;;;;;1999.90;999.90;;;11.90;99.90;;;;;;4996427;28;20078;-81
2023/10/31 09:11:04;;;;;;;1999.90;999.90;;;12.10;99.90;;;;;;4997912;28;20038;-80
2023/10/31 09:13:31;;;;;;;1999.90;999.90;;;12.20;99.90;;;;;;4997077;28;20470;-79
2023/10/31 09:15:58;;;;;;;1999.90;999.90;;;12.20;99.90;;;;;;4997804;28;20398;-80
2023/10/31 09:18:24;;;;;;;1999.90;999.90;;;12.10;99.90;;;;;;4996840;28;20042;-80
2023/10/31 09:20:50;;;;;;;1999.90;999.90;;;12.10;99.90;;;;;;4996263;28;20045;-78
2023/10/31 09:23:17;;;;;;;1999.90;999.90;;;12.00;99.90;;;;;;4997042;28;20142;-79
2023/10/31 09:25:45;;;;;;;1999.90;999.90;;;11.90;99.90;;;;;;4995727;28;20058;-78
2023/10/31 09:28:11;;;;;;;1999.90;999.90;;;11.80;99.90;;;;;;4996374;28;20039;-79
2023/10/31 09:30:37;;;;;;;1999.90;999.90;;;11.70;99.90;;;;;;4980226;28;20085;-77
2023/10/31 09:33:03;;;;;;;1999.90;999.90;;;11.60;99.90;;;;;;4995958;28;20034;-79
2023/10/31 09:35:28;;;;;;;1999.90;999.90;;;11.50;99.90;;;;;;4995927;28;20046;-81
2023/10/31 09:37:55;;;;;;;1999.90;999.90;;;11.40;99.90;;;;;;4996306;28;20046;-79
2023/10/31 09:40:21;;;;;;;1999.90;999.90;;;11.30;99.90;;;;;;4995835;28;20042;-79
2023/10/31 09:42:48;;;;;;;1999.90;999.90;;;11.20;99.90;;;;;;4996059;28;20035;-79
2023/10/31 09:45:14;;;;;;;1999.90;999.90;;;11.20;99.90;;;;;;4996024;28;20057;-81
2023/10/31 09:47:41;;;;;;;1999.90;999.90;;;11.20;99.90;;;;;;4997222;28;20034;-77
2023/10/31 09:50:09;;;;;;;1999.90;999.90;;;11.20;99.90;;;;;;4997136;28;20047;-78
2023/10/31 09:52:38;;;;;;;1999.90;999.90;;;11.10;99.90;;;;;;4995428;28;20046;-79
2023/10/31 09:55:05;;;;;;;1999.90;999.90;;;11.10;99.90;;;;;;4995688;28;20054;-82
2023/10/31 09:57:31;;;;;;;1999.90;999.90;;;11.10;99.90;;;;;;4997343;28;20057;-78
2023/10/31 09:59:57;;;;;;;1999.90;999.90;;;11.00;99.90;;;;;;4979749;28;20037;-79
2023/10/31 10:02:23;;;;;;;1999.90;999.90;;;11.00;99.90;;;;;;4995828;28;20114;-79
2023/10/31 10:04:49;;;;;;;1999.90;999.90;;;11.10;99.90;;;;;;4996368;28;20045;-79
2023/10/31 10:07:19;;;;;;;1999.90;999.90;;;11.10;99.90;;;;;;4996675;28;20477;-80
2023/10/31 10:09:46;;;;;;;1999.90;999.90;;;11.00;99.90;;;;;;4995471;28;20368;-77
2023/10/31 10:12:13;;;;;;;1999.90;999.90;;;11.00;99.90;;;;;;4996490;28;20035;-76
2023/10/31 10:14:39;;;;;;;1999.90;999.90;;;11.00;99.90;;;;;;4995828;28;20101;-76
2023/10/31 10:17:16;;;;;;;1999.90;999.90;;;11.00;99.90;;;;;;4995499;28;20050;-78
2023/10/31 10:19:42;;;;;;;1999.90;999.90;;;11.00;99.90;;;;;;4995541;28;20089;-78
2023/10/31 10:22:08;;;;;;;1999.90;999.90;;;11.00;99.90;;;;;;4995284;28;20046;-78
2023/10/31 10:24:34;;;;;;;1999.90;999.90;;;11.00;99.90;;;;;;4994751;28;20097;-78
2023/10/31 10:27:00;;;;;;;1999.90;999.90;;;11.00;99.90;;;;;;4994238;28;20073;-79
2023/10/31 10:29:26;;;;;;;1999.90;999.90;;;11.10;99.90;;;;;;4995157;28;20078;-78
2023/10/31 10:34:55;;;;;;;1999.90;999.90;;;11.10;99.90;;;;;;4803380;23;20053;-79
2023/10/31 10:37:23;;;;;;;1999.90;999.90;;;11.10;99.90;;;;;;5014674;28;20441;-79
2023/10/31 10:39:55;;;;;;;1999.90;999.90;;;11.10;99.90;;;;;;5013589;28;20042;-77
2023/10/31 10:42:33;;;;;;;1999.90;999.90;;;11.10;99.90;;;;;;5015054;28;20034;-80
2023/10/31 10:45:03;;;;;;;1999.90;999.90;;;11.10;99.90;;;;;;5013768;28;20108;-78
2023/10/31 10:47:32;;;;;;;1999.90;999.90;;;11.10;99.90;;;;;;4997794;28;20365;-80
2023/10/31 10:50:00;;;;;;;1999.90;999.90;;;11.10;99.90;;;;;;5014193;28;20049;-77
2023/10/31 10:52:33;;;;;;;1999.90;999.90;;;11.10;99.90;;;;;;5014941;28;20040;-80
2023/10/31 10:55:12;;;;;;;1999.90;999.90;;;11.20;99.90;;;;;;5013365;28;20536;-80
2023/10/31 10:58:05;;;;;;;1999.90;999.90;;;11.30;99.90;;;;;;5013821;28;20397;-78
2023/10/31 11:00:31;;;;;;;1999.90;999.90;;;11.50;99.90;;;;;;5013718;28;20050;-79
2023/10/31 11:02:57;;;;;;;1999.90;999.90;;;11.70;99.90;;;;;;5013340;28;20057;-80
2023/10/31 11:05:26;;;;;;;1999.90;999.90;;;11.90;99.90;;;;;;5013380;28;20517;-77
2023/10/31 11:07:53;;;;;;;1999.90;999.90;;;12.10;99.90;;;;;;5013403;28;20042;-79
2023/10/31 11:10:19;;;;;;;1999.90;999.90;;;12.00;99.90;;;;;;4997050;28;20038;-80
2023/10/31 11:12:45;;;;;;;1999.90;999.90;;;12.00;99.90;;;;;;5013854;28;20056;-79
2023/10/31 11:15:14;;;;;;;1999.90;999.90;;;11.90;99.90;;;;;;5012630;28;20041;-81
2023/10/31 11:17:42;;;;;;;1999.90;999.90;;;11.80;99.90;;;;;;5013282;28;20080;-81
2023/10/31 11:20:10;;;;;;;1999.90;999.90;;;11.80;99.90;;;;;;5013212;28;20049;-81
2023/10/31 11:22:40;;;;;;;1999.90;999.90;;;11.70;99.90;;;;;;5013200;28;20052;-78
2023/10/31 11:25:10;;;;;;;1999.90;999.90;;;11.60;99.90;;;;;;5013042;28;20052;-81
2023/10/31 11:27:37;;;;;;;1999.90;999.90;;;11.50;99.90;;;;;;5013213;28;20044;-81
2023/10/31 11:30:19;;;;;;;1999.90;999.90;;;11.50;99.90;;;;;;5013138;28;20038;-78
2023/10/31 11:32:51;;;;;;;1999.90;999.90;;;11.50;99.90;;;;;;5012892;28;20050;-79
2023/10/31 11:35:20;;;;;;;1999.90;999.90;;;11.50;99.90;;;;;;4996736;28;20057;-80
2023/10/31 11:37:52;;;;;;;1999.90;999.90;;;11.50;99.90;;;;;;5013147;28;20045;-78
2023/10/31 11:40:20;;;;;;;1999.90;999.90;;;11.50;99.90;;;;;;5012810;28;20045;-76
2023/10/31 11:42:56;;;;;;;1999.90;999.90;;;11.50;99.90;;;;;;4996293;28;20038;-81
2023/10/31 11:45:28;;;;;;;1999.90;999.90;;;11.70;99.90;;;;;;5012504;28;20053;-81
2023/10/31 11:47:54;;;;;;;1999.90;999.90;;;11.90;99.90;;;;;;5012417;28;20050;-83
2023/10/31 11:50:19;;;;;;;1999.90;999.90;;;12.10;99.90;;;;;;5012705;28;20374;-81
2023/10/31 11:52:57;;;;;;;1999.90;999.90;;;12.20;99.90;;;;;;5012521;28;20042;-82
2023/10/31 11:55:23;;;;;;;1999.90;999.90;;;12.50;99.90;;;;;;5012823;28;20477;-81
2023/10/31 11:57:49;;;;;;;1999.90;999.90;;;12.70;99.90;;;;;;5013083;28;20066;-83
2023/10/31 12:00:22;;;;;;;1999.90;999.90;;;12.70;99.90;;;;;;5012873;28;20060;-82
2023/10/31 12:02:59;;;;;;;1999.90;999.90;;;12.60;99.90;;;;;;5014416;28;20112;-79
2023/10/31 12:05:24;;;;;;;1999.90;999.90;;;12.60;99.90;;;;;;5013182;28;20462;-82
2023/10/31 12:07:50;;;;;;;1999.90;999.90;;;12.50;99.90;;;;;;5013967;28;20073;-81
2023/10/31 12:10:26;;;;;;;1999.90;999.90;;;12.50;99.90;;;;;;5013038;28;20048;-82
2023/10/31 12:12:53;;;;;;;1999.90;999.90;;;12.40;99.90;;;;;;5013245;28;20042;-85
2023/10/31 12:15:19;;;;;;;1999.90;999.90;;;12.30;99.90;;;;;;5012974;28;20041;-83
2023/10/31 12:17:44;;;;;;;1999.90;999.90;;;12.20;99.90;;;;;;5012997;28;20050;-80
2023/10/31 12:20:10;;;;;;;1999.90;999.90;;;12.20;99.90;;;;;;5013167;28;20053;-80
2023/10/31 12:22:37;;;;;;;1999.90;999.90;;;12.10;99.90;;;;;;5012605;28;20042;-83
2023/10/31 12:25:07;;;;;;;1999.90;999.90;;;12.00;99.90;;;;;;4997177;28;20401;-80
2023/10/31 12:27:45;;;;;;;1999.90;999.90;;;11.90;99.90;;;;;;5018700;28;20038;-84
2023/10/31 12:30:13;;;;;;;1999.90;999.90;;;11.80;99.90;;;;;;5019323;28;20418;-84
2023/10/31 12:32:41;;;;;;;1999.90;999.90;;;11.80;99.90;;;;;;5019270;28;20481;-81
2023/10/31 12:35:15;;;;;;;1999.90;999.90;;;11.80;99.90;;;;;;5019495;28;20045;-82
2023/10/31 12:37:44;;;;;;;1999.90;999.90;;;11.80;99.90;;;;;;5019602;28;20121;-81
2023/10/31 12:40:11;;;;;;;1999.90;999.90;;;11.70;99.90;;;;;;5019421;28;20073;-81
2023/10/31 12:42:37;;;;;;;1999.90;999.90;;;11.70;99.90;;;;;;5019689;28;20397;-83
2023/10/31 12:45:05;;;;;;;1999.90;999.90;;;11.60;99.90;;;;;;5020219;28;20041;-79
2023/10/31 12:47:30;;;;;;;1999.90;999.90;;;11.60;99.90;;;;;;5002656;28;20052;-81
2023/10/31 12:50:14;;;;;;;1999.90;999.90;;;11.70;99.90;;;;;;5021056;28;20108;-82
2023/10/31 12:52:47;;;;;;;1999.90;999.90;;;12.00;99.90;;;;;;5019520;28;20113;-82
2023/10/31 12:55:18;;;;;;;1999.90;999.90;;;12.10;99.90;;;;;;5018974;28;20474;-81
2023/10/31 12:57:44;;;;;;;1999.90;999.90;;;12.20;99.90;;;;;;5019579;28;20196;-82
2023/10/31 13:00:14;;;;;;;1999.90;999.90;;;12.20;99.90;;;;;;5003285;28;20065;-78
2023/10/31 13:02:40;;;;;;;1999.90;999.90;;;12.10;99.90;;;;;;5020659;28;20038;-81
2023/10/31 13:05:15;;;;;;;1999.90;999.90;;;12.10;99.90;;;;;;5020772;28;20038;-82
2023/10/31 13:07:52;;;;;;;1999.90;999.90;;;12.10;99.90;;;;;;5019832;28;20387;-82
2023/10/31 13:10:19;;;;;;;1999.90;999.90;;;12.10;99.90;;;;;;5019864;28;20042;-81
2023/10/31 13:12:46;;;;;;;1999.90;999.90;;;12.20;99.90;;;;;;5019457;28;20130;-83
2023/10/31 13:15:16;;;;;;;1999.90;999.90;;;12.30;99.90;;;;;;5018741;28;20042;-83
2023/10/31 13:17:45;;;;;;;1999.90;999.90;;;12.30;99.90;;;;;;5019150;28;20057;-80
2023/10/31 13:20:12;;;;;;;1999.90;999.90;;;12.40;99.90;;;;;;5003015;28;20089;-81
2023/10/31 13:22:39;;;;;;;1999.90;999.90;;;12.60;99.90;;;;;;5019739;28;20042;-80
2023/10/31 13:25:10;;;;;;;1999.90;999.90;;;12.70;99.90;;;;;;5019105;28;20053;-80
2023/10/31 13:27:43;;;;;;;1999.90;999.90;;;12.80;99.90;;;;;;5019303;28;20042;-83
2023/10/31 13:30:11;;;;;;;1999.90;999.90;;;12.80;99.90;;;;;;5020633;28;20048;-80
2023/10/31 13:32:37;;;;;;;1999.90;999.90;;;12.80;99.90;;;;;;5002509;28;20045;-82
2023/10/31 13:35:04;;;;;;;1999.90;999.90;;;12.90;99.90;;;;;;5018969;28;20053;-80
2023/10/31 13:37:30;;;;;;;1999.90;999.90;;;12.80;99.90;;;;;;5017470;28;20512;-83
2023/10/31 13:39:55;;;;;;;1999.90;999.90;;;12.90;99.90;;;;;;5016188;28;20037;-80
2023/10/31 13:42:21;;;;;;;1999.90;999.90;;;12.90;99.90;;;;;;5015887;28;20052;-83
2023/10/31 13:44:48;;;;;;;1999.90;999.90;;;13.00;99.90;;;;;;4999484;28;20053;-80
2023/10/31 13:47:14;;;;;;;1999.90;999.90;;;13.00;99.90;;;;;;5015822;28;20050;-80
2023/10/31 13:49:39;;;;;;;1999.90;999.90;;;13.00;99.90;;;;;;5015791;28;20397;-81
2023/10/31 13:52:08;;;;;;;1999.90;999.90;;;13.10;99.90;;;;;;5015754;28;20049;-80
2023/10/31 13:54:33;;;;;;;1999.90;999.90;;;13.10;99.90;;;;;;4999375;28;20119;-80
2023/10/31 13:57:00;;;;;;;1999.90;999.90;;;13.10;99.90;;;;;;5015290;28;20049;-79
2023/10/31 13:59:26;;;;;;;1999.90;999.90;;;13.20;99.90;;;;;;5015409;28;20073;-83
2023/10/31 14:01:52;;;;;;;1999.90;999.90;;;13.10;99.90;;;;;;5015370;28;20052;-80
2023/10/31 14:04:19;;;;;;;1999.90;999.90;;;13.10;99.90;;;;;;5015136;28;20041;-81
2023/10/31 14:06:46;;;;;;;1999.90;999.90;;;13.00;99.90;;;;;;5016742;28;20045;-80
2023/10/31 14:09:12;;;;;;;1999.90;999.90;;;13.00;99.90;;;;;;5015346;28;20050;-79
2023/10/31 14:11:39;;;;;;;1999.90;999.90;;;12.90;99.90;;;;;;5014893;28;20367;-82
2023/10/31 14:14:13;;;;;;;1999.90;999.90;;;12.90;99.90;;;;;;5015349;28;20054;-81
2023/10/31 14:16:45;;;;;;;1999.90;999.90;;;12.80;99.90;;;;;;5014879;28;20054;-80
2023/10/31 14:19:11;;;;;;;1999.90;999.90;;;12.80;99.90;;;;;;5015057;28;20351;-80
2023/10/31 14:21:38;;;;;;;1999.90;999.90;;;12.80;99.90;;;;;;5014825;28;20053;-79
2023/10/31 14:24:04;;;;;;;1999.90;999.90;;;12.80;99.90;;;;;;5015000;28;20042;-80
2023/10/31 14:26:32;;;;;;;1999.90;999.90;;;12.80;99.90;;;;;;4998231;28;20486;-81
2023/10/31 14:28:58;;;;;;;1999.90;999.90;;;12.70;99.90;;;;;;5014562;28;20512;-81
2023/10/31 14:31:24;;;;;;;1999.90;999.90;;;12.60;99.90;;;;;;5014999;28;20050;-81
2023/10/31 14:33:49;;;;;;;1999.90;999.90;;;12.50;99.90;;;;;;5014592;28;20038;-80
2023/10/31 14:36:15;;;;;;;1999.90;999.90;;;12.50;99.90;;;;;;5014520;28;20042;-81
2023/10/31 14:38:41;;;;;;;1999.90;999.90;;;12.40;99.90;;;;;;5014599;28;20033;-79
2023/10/31 14:41:08;;;;;;;1999.90;999.90;;;12.40;99.90;;;;;;5015431;28;20466;-80
2023/10/31 14:43:34;;;;;;;1999.90;999.90;;;12.40;99.90;;;;;;5014499;28;20052;-80
2023/10/31 14:46:00;;;;;;;1999.90;999.90;;;12.30;99.90;;;;;;5014529;28;20118;-81
2023/10/31 14:48:26;;;;;;;1999.90;999.90;;;12.30;99.90;;;;;;4997901;28;20038;-81
2023/10/31 14:50:51;;;;;;;1999.90;999.90;;;12.20;99.90;;;;;;4996634;28;20092;-80
2023/10/31 14:53:20;;;;;;;1999.90;999.90;;;12.20;99.90;;;;;;5014260;28;20109;-81
2023/10/31 14:55:46;;;;;;;1999.90;999.90;;;12.20;99.90;;;;;;5014190;28;20053;-81
2023/10/31 14:58:12;;;;;;;1999.90;999.90;;;12.10;99.90;;;;;;5015433;28;20045;-78
2023/10/31 15:00:38;;;;;;;1999.90;999.90;;;12.10;99.90;;;;;;5014184;28;20050;-79
2023/10/31 15:03:04;;;;;;;1999.90;999.90;;;12.10;99.90;;;;;;5014518;28;20133;-81
2023/10/31 15:05:30;;;;;;;1999.90;999.90;;;12.00;99.90;;;;;;5013675;28;20081;-80
2023/10/31 15:07:57;;;;;;;1999.90;999.90;;;12.00;99.90;;;;;;5013849;28;20052;-81
2023/10/31 15:10:23;;;;;;;1999.90;999.90;;;12.00;99.90;;;;;;5014036;28;20057;-81
2023/10/31 15:12:49;;;;;;;1999.90;999.90;;;11.90;99.90;;;;;;5013750;28;20502;-80
2023/10/31 15:15:15;;;;;;;1999.90;999.90;;;12.00;99.90;;;;;;4997722;28;20176;-80
2023/10/31 15:17:41;;;;;;;1999.90;999.90;;;11.90;99.90;;;;;;5014176;28;20046;-79
2023/10/31 15:20:09;;;;;;;1999.90;999.90;;;11.90;99.90;;;;;;5013999;28;20489;-80
2023/10/31 15:22:36;;;;;;;1999.90;999.90;;;11.90;99.90;;;;;;4997710;28;20065;-81
2023/10/31 15:25:02;;;;;;;1999.90;999.90;;;11.90;99.90;;;;;;5014024;28;20073;-79
2023/10/31 15:27:28;;;;;;;1999.90;999.90;;;11.80;99.90;;;;;;5014347;28;20504;-80
2023/10/31 15:29:53;;;;;;;1999.90;999.90;;;11.90;99.90;;;;;;5013870;28;20077;-79
2023/10/31 15:32:19;;;;;;;1999.90;999.90;;;11.80;99.90;;;;;;5013887;28;20046;-80
2023/10/31 15:34:45;;;;;;;1999.90;999.90;;;11.90;99.90;;;;;;5013796;28;20049;-79
2023/10/31 15:37:11;;;;;;;1999.90;999.90;;;11.80;99.90;;;;;;4997498;28;20037;-79
2023/10/31 15:39:38;;;;;;;1999.90;999.90;;;11.80;99.90;;;;;;4997310;28;20080;-77
2023/10/31 15:42:05;;;;;;;1999.90;999.90;;;11.80;99.90;;;;;;5013648;28;20128;-80
2023/10/31 15:44:32;;;;;;;1999.90;999.90;;;11.80;99.90;;;;;;5013540;28;20049;-79
2023/10/31 15:46:57;;;;;;;1999.90;999.90;;;11.70;99.90;;;;;;5013649;28;20038;-78
2023/10/31 15:49:23;;;;;;;1999.90;999.90;;;11.70;99.90;;;;;;5013459;28;20034;-82
2023/10/31 15:51:48;;;;;;;1999.90;999.90;;;11.70;99.90;;;;;;5014634;28;20038;-79
2023/10/31 15:54:14;;;;;;;1999.90;999.90;;;11.70;99.90;;;;;;5012995;28;20409;-79
2023/10/31 15:56:40;;;;;;;1999.90;999.90;;;11.70;99.90;;;;;;5013170;28;20128;-80
2023/10/31 15:59:05;;;;;;;1999.90;999.90;;;11.60;99.90;;;;;;4997063;28;20053;-80
2023/10/31 16:01:31;;;;;;;1999.90;999.90;;;11.60;99.90;;;;;;4996587;28;20486;-81